Time;durP1;ratioP1;P1;durP2;ratioP2;P2;SDS_P1;SDS_P2;PMS_P1;PMS_P2;Temp;Humidity;BMP_temperature;BMP_pressure;BME280_temperature;BME280_humidity;BME280_pressure;Samples;Min_cycle;Max_cycle;Signal;HPM_P1;HPM_P2
2023/01/22 00:02:13;;;;;;;22.00;11.88;;;;;;;-2.30;100.00;103487.84;6217484;23;20079;-78
2023/01/22 00:04:39;;;;;;;21.70;11.65;;;;;;;-2.26;100.00;103488.81;6192311;23;20021;-79
2023/01/22 00:07:06;;;;;;;20.95;11.00;;;;;;;-2.23;100.00;103496.84;6219231;22;20024;-79
2023/01/22 00:09:32;;;;;;;20.52;11.45;;;;;;;-2.19;100.00;103492.63;6218731;23;20444;-78
2023/01/22 00:11:59;;;;;;;18.40;10.68;;;;;;;-2.13;100.00;103488.09;6218597;23;20024;-79
2023/01/22 00:14:25;;;;;;;18.33;9.55;;;;;;;-2.11;100.00;103480.75;6218956;22;20021;-79
2023/01/22 00:16:52;;;;;;;17.48;9.15;;;;;;;-2.06;100.00;103483.28;6219055;22;20048;-77
2023/01/22 00:19:18;;;;;;;15.57;9.82;;;;;;;-2.03;100.00;103480.88;6217418;22;20021;-77
2023/01/22 00:21:45;;;;;;;15.23;9.93;;;;;;;-1.99;100.00;103477.69;6218456;23;20670;-78
2023/01/22 00:24:12;;;;;;;15.02;10.07;;;;;;;-1.96;100.00;103472.66;6217173;23;20111;-78
2023/01/22 00:26:39;;;;;;;19.52;10.15;;;;;;;-1.93;100.00;103469.47;6218820;23;20095;-79
2023/01/22 00:29:06;;;;;;;19.00;10.63;;;;;;;-1.91;100.00;103469.97;6219074;22;20091;-77
2023/01/22 00:31:32;;;;;;;15.73;10.10;;;;;;;-1.90;100.00;103471.50;6218975;23;20019;-77
2023/01/22 00:33:59;;;;;;;16.00;10.20;;;;;;;-1.88;100.00;103466.78;6217246;23;20028;-77
2023/01/22 00:36:25;;;;;;;13.80;9.80;;;;;;;-1.86;100.00;103462.03;6217532;23;20071;-78
2023/01/22 00:38:52;;;;;;;15.18;9.90;;;;;;;-1.84;100.00;103461.75;6216465;23;20027;-78
2023/01/22 00:41:19;;;;;;;15.20;9.40;;;;;;;-1.84;100.00;103454.69;6219037;23;20020;-78
2023/01/22 00:43:46;;;;;;;17.33;9.80;;;;;;;-1.85;100.00;103460.22;6219248;22;20490;-77
2023/01/22 00:46:15;;;;;;;15.13;9.57;;;;;;;-1.86;100.00;103450.81;6219039;22;20426;-77
2023/01/22 00:48:44;;;;;;;16.63;10.68;;;;;;;-1.89;100.00;103454.78;6219395;22;20432;-77
2023/01/22 00:51:12;;;;;;;18.38;10.35;;;;;;;-1.90;100.00;103455.06;6216224;23;20025;-78
2023/01/22 00:53:42;;;;;;;15.65;8.90;;;;;;;-1.91;100.00;103456.13;6217470;22;20837;-78
2023/01/22 00:56:10;;;;;;;15.05;9.68;;;;;;;-1.92;100.00;103451.97;6217236;23;20017;-78
2023/01/22 00:58:36;;;;;;;15.63;9.88;;;;;;;-1.94;100.00;103449.66;6218788;22;20022;-77
2023/01/22 01:01:05;;;;;;;17.45;10.13;;;;;;;-1.95;100.00;103455.94;6216966;23;20017;-77
2023/01/22 01:03:32;;;;;;;16.08;9.98;;;;;;;-1.96;100.00;103451.00;6191988;23;20358;-78
2023/01/22 01:06:12;;;;;;;15.10;9.40;;;;;;;-1.97;100.00;103452.06;6216269;23;20075;-78
2023/01/22 01:08:41;;;;;;;12.23;9.23;;;;;;;-1.99;100.00;103452.34;6218379;22;20064;-78
2023/01/22 01:11:12;;;;;;;14.60;9.02;;;;;;;-1.99;100.00;103452.34;6216735;23;20021;-78
2023/01/22 01:13:41;;;;;;;;;;;;;;;-2.01;100.00;103449.28;6217527;23;20459;-78
2023/01/22 01:16:13;;;;;;;13.77;7.97;;;;;;;-2.01;100.00;103444.06;6216739;23;19920;-79
2023/01/22 01:18:40;;;;;;;19.67;9.50;;;;;;;-2.00;100.00;103439.59;6191382;23;20052;-78
2023/01/22 01:21:07;;;;;;;15.18;9.50;;;;;;;-1.99;100.00;103441.13;6216734;23;20024;-78
2023/01/22 01:23:34;;;;;;;14.80;9.35;;;;;;;-1.99;100.00;103436.69;6191186;23;20095;-78
2023/01/22 01:26:09;;;;;;;15.02;9.60;;;;;;;-2.00;100.00;103432.56;6218517;22;20036;-78
2023/01/22 01:28:38;;;;;;;12.32;7.93;;;;;;;-2.00;100.00;103434.38;6218590;23;20023;-78
2023/01/22 01:31:07;;;;;;;12.60;8.00;;;;;;;-1.99;100.00;103433.28;6216185;23;20017;-78
2023/01/22 01:33:34;;;;;;;14.18;8.82;;;;;;;-1.98;100.00;103429.63;6218403;22;20052;-78
2023/01/22 01:36:03;;;;;;;12.15;8.82;;;;;;;-1.99;100.00;103430.69;6191583;23;20076;-78
2023/01/22 01:38:30;;;;;;;12.88;8.45;;;;;;;-1.98;100.00;103437.47;6217775;22;20021;-78
2023/01/22 01:40:57;;;;;;;15.02;9.02;;;;;;;-1.97;100.00;103433.78;6218432;22;20017;-79
2023/01/22 01:43:25;;;;;;;12.27;8.52;;;;;;;-1.97;100.00;103434.56;6218195;23;20064;-78
2023/01/22 01:45:53;;;;;;;13.38;9.25;;;;;;;-1.98;100.00;103421.78;6218258;22;20017;-78
2023/01/22 01:48:29;;;;;;;15.48;8.07;;;;;;;-1.96;100.00;103417.06;6216397;23;20032;-77
2023/01/22 01:51:03;;;;;;;14.18;8.40;;;;;;;-1.96;100.00;103412.59;6217883;22;20021;-78
2023/01/22 01:53:31;;;;;;;13.90;8.48;;;;;;;-1.95;100.00;103421.22;6217768;23;20096;-78
2023/01/22 01:56:00;;;;;;;14.07;8.27;;;;;;;-1.96;100.00;103410.00;6217404;23;20044;-78
2023/01/22 01:58:30;;;;;;;12.48;8.98;;;;;;;-1.95;100.00;103411.53;6165826;23;20021;-77
2023/01/22 02:01:02;;;;;;;12.50;7.53;;;;;;;-1.94;100.00;103412.31;6218123;23;20009;-78
2023/01/22 02:03:29;;;;;;;9.98;6.82;;;;;;;-1.93;100.00;103411.25;6192511;23;20021;-78
2023/01/22 02:05:56;;;;;;;11.38;7.25;;;;;;;-1.93;100.00;103412.03;6218405;23;20013;-78
2023/01/22 02:08:22;;;;;;;12.27;7.43;;;;;;;-1.91;100.00;103412.53;6192790;23;20084;-78
2023/01/22 02:10:49;;;;;;;11.00;7.40;;;;;;;-1.90;100.00;103408.84;6193276;23;20017;-77
2023/01/22 02:13:25;;;;;;;11.15;7.35;;;;;;;-1.89;100.00;103412.22;6219751;23;20062;-78
2023/01/22 02:15:51;;;;;;;12.77;7.95;;;;;;;-1.89;100.00;103420.06;6192714;23;20021;-78
2023/01/22 02:18:18;;;;;;;10.18;7.40;;;;;;;-1.89;100.00;103413.00;6192514;23;20025;-78
2023/01/22 02:20:55;;;;;;;12.48;7.47;;;;;;;-1.90;100.00;103405.47;6218857;23;20447;-78
2023/01/22 02:23:23;;;;;;;12.23;7.38;;;;;;;-1.89;100.00;103405.19;6219723;23;20073;-77
2023/01/22 02:25:50;;;;;;;10.85;7.38;;;;;;;-1.88;100.00;103405.94;6219612;23;20009;-77
2023/01/22 02:28:17;;;;;;;13.60;7.22;;;;;;;-1.89;100.00;103399.94;6191631;23;20096;-77
2023/01/22 02:30:45;;;;;;;11.05;7.50;;;;;;;-1.89;100.00;103394.72;6192615;23;20017;-77
2023/01/22 02:33:15;;;;;;;11.02;7.72;;;;;;;-1.89;100.00;103399.19;6190783;23;20019;-76
2023/01/22 02:35:43;;;;;;;9.07;6.97;;;;;;;-1.90;100.00;103403.63;6190446;23;20060;-77
2023/01/22 02:38:09;;;;;;;10.55;7.22;;;;;;;-1.91;100.00;103402.06;6218348;23;20021;-79
2023/01/22 02:40:47;;;;;;;12.57;6.90;;;;;;;-1.95;100.00;103393.28;6192145;23;20513;-79
2023/01/22 02:43:17;;;;;;;10.45;7.20;;;;;;;-1.93;100.00;103398.22;6191486;23;20044;-79
2023/01/22 02:45:43;;;;;;;9.95;7.25;;;;;;;-1.94;100.00;103402.66;6190612;23;20021;-79
2023/01/22 02:48:11;;;;;;;13.15;6.40;;;;;;;-1.94;100.00;103397.44;6167634;23;20017;-77
2023/01/22 02:50:38;;;;;;;9.50;6.93;;;;;;;-1.94;100.00;103396.66;6205348;23;20021;-78
2023/01/22 02:53:05;;;;;;;13.50;7.30;;;;;;;-1.95;100.00;103401.09;6217860;23;20049;-77
2023/01/22 02:55:31;;;;;;;12.02;6.70;;;;;;;-1.95;100.00;103398.50;6217580;23;20017;-77
2023/01/22 02:57:58;;;;;;;11.05;6.80;;;;;;;-1.95;100.00;103401.09;6217459;23;20030;-78
2023/01/22 03:00:24;;;;;;;9.25;6.63;;;;;;;-1.95;100.00;103389.88;6217029;23;20379;-77
2023/01/22 03:02:51;;;;;;;12.00;6.82;;;;;;;-1.97;100.00;103387.56;6219533;22;20459;-77
2023/01/22 03:05:18;;;;;;;11.27;7.47;;;;;;;-1.97;100.00;103382.34;6216775;23;20044;-77
2023/01/22 03:07:45;;;;;;;9.75;6.70;;;;;;;-1.97;100.00;103381.56;6219844;22;20025;-77
2023/01/22 03:10:16;;;;;;;9.73;6.30;;;;;;;-1.96;100.00;103391.72;6219440;22;20129;-77
2023/01/22 03:21:11;;;;;;;11.18;6.05;;;;;;;-1.97;100.00;103381.56;6219260;22;20068;-77
2023/01/22 03:23:38;;;;;;;10.95;6.20;;;;;;;-1.97;100.00;103379.72;6192914;23;20021;-77
2023/01/22 03:26:05;;;;;;;12.25;7.55;;;;;;;-1.97;100.00;103379.72;6217713;23;20023;-77
2023/01/22 03:28:33;;;;;;;7.82;5.82;;;;;;;-1.98;100.00;103377.41;6194106;23;20079;-77
2023/01/22 03:30:59;;;;;;;9.95;6.25;;;;;;;-1.98;100.00;103383.41;6219403;23;20021;-77
2023/01/22 03:33:27;;;;;;;10.27;6.82;;;;;;;-1.98;100.00;103386.00;6218782;23;20024;-77
2023/01/22 03:36:02;;;;;;;12.25;6.85;;;;;;;-1.98;100.00;103378.19;6217499;23;20021;-77
2023/01/22 03:38:30;;;;;;;9.27;6.65;;;;;;;-1.98;100.00;103374.81;6217302;23;20021;-77
2023/01/22 03:41:05;;;;;;;12.98;7.07;;;;;;;-1.99;100.00;103384.47;6217498;23;20020;-77
2023/01/22 03:43:32;;;;;;;9.82;6.75;;;;;;;-2.00;100.00;103388.16;6217658;23;20012;-77
2023/01/22 03:46:09;;;;;;;7.43;6.00;;;;;;;-1.98;100.00;103395.69;6192952;23;20017;-78
2023/01/22 03:48:40;;;;;;;10.65;6.07;;;;;;;-2.01;100.00;103399.66;6216973;23;20087;-77
2023/01/22 03:51:09;;;;;;;8.90;6.43;;;;;;;-2.02;100.00;103403.34;6192141;23;20021;-77
2023/01/22 03:53:36;;;;;;;9.27;6.95;;;;;;;-2.03;100.00;103405.19;6216777;23;20420;-77
2023/01/22 03:56:06;;;;;;;9.80;6.55;;;;;;;-2.04;100.00;103403.63;6216694;23;20079;-77
2023/01/22 03:58:35;;;;;;;9.52;6.78;;;;;;;-2.05;100.00;103394.25;6216849;23;20025;-77
2023/01/22 04:01:06;;;;;;;11.35;6.80;;;;;;;-2.07;100.00;103395.59;6192166;23;20075;-78
2023/01/22 04:03:33;;;;;;;8.52;6.38;;;;;;;-2.10;100.00;103394.34;6191936;23;20021;-78
2023/01/22 04:06:01;;;;;;;11.88;6.43;;;;;;;-2.11;100.00;103392.78;6216444;23;20017;-78
2023/01/22 04:08:30;;;;;;;10.20;6.20;;;;;;;-2.11;100.00;103397.22;6192347;23;20109;-77
2023/01/22 04:10:58;;;;;;;8.50;6.00;;;;;;;-2.13;100.00;103394.13;6192180;23;20443;-78
2023/01/22 04:13:27;;;;;;;9.95;6.55;;;;;;;-2.14;100.00;103387.38;6217222;23;20121;-77
2023/01/22 04:15:55;;;;;;;10.70;6.68;;;;;;;-2.15;100.00;103388.44;6192167;23;20024;-77
2023/01/22 04:18:44;;;;;;;10.35;6.38;;;;;;;-2.16;100.00;103379.06;6219394;23;20454;-77
2023/01/22 04:21:27;;;;;;;9.43;5.90;;;;;;;-2.16;100.00;103392.09;6215521;23;20447;-77
2023/01/22 04:23:56;;;;;;;10.25;6.47;;;;;;;-2.17;100.00;103393.16;6192529;23;20025;-78
2023/01/22 04:26:23;;;;;;;12.00;6.53;;;;;;;-2.18;100.00;103379.34;6218666;22;20040;-77
2023/01/22 04:28:49;;;;;;;10.27;6.20;;;;;;;-2.17;100.00;103386.09;6217285;23;20100;-77
2023/01/22 04:31:19;;;;;;;9.05;6.07;;;;;;;-2.14;100.00;103382.16;6218489;22;20017;-77
2023/01/22 04:34:17;;;;;;;10.40;6.30;;;;;;;-2.10;100.00;103385.72;6217529;23;20088;-78
2023/01/22 04:36:59;;;;;;;7.85;6.18;;;;;;;-2.05;100.00;103383.03;6217241;23;20013;-77
2023/01/22 04:39:30;;;;;;;10.07;6.43;;;;;;;-2.02;100.00;103378.00;6192498;23;20116;-77
2023/01/22 04:41:57;;;;;;;8.20;6.13;;;;;;;-1.96;100.00;103380.50;6217082;23;20029;-78
2023/01/22 04:44:23;;;;;;;14.73;6.53;;;;;;;-1.94;100.00;103381.00;6218830;22;20021;-77
2023/01/22 04:46:50;;;;;;;10.05;7.13;;;;;;;-1.91;100.00;103386.41;6191426;23;20646;-78
2023/01/22 04:49:16;;;;;;;11.05;7.00;;;;;;;-1.89;100.00;103379.06;6216856;22;20444;-78
2023/01/22 04:51:44;;;;;;;11.43;6.63;;;;;;;-1.87;100.00;103374.31;6192029;23;20032;-77
2023/01/22 04:54:12;;;;;;;11.35;6.68;;;;;;;-1.84;100.00;103392.03;6167654;23;20059;-78
2023/01/22 04:56:39;;;;;;;10.15;6.90;;;;;;;-1.82;100.00;103386.53;6191870;23;20056;-78
2023/01/22 04:59:07;;;;;;;13.88;8.20;;;;;;;-1.80;100.00;103398.22;6167113;23;20191;-78
2023/01/22 05:01:34;;;;;;;9.52;6.78;;;;;;;-1.78;100.00;103384.88;6191033;23;20014;-77
2023/01/22 05:04:02;;;;;;;8.88;6.68;;;;;;;-1.77;100.00;103384.59;6192492;23;20049;-78
2023/01/22 05:06:32;;;;;;;9.55;6.88;;;;;;;-1.74;100.00;103391.84;6191610;23;20116;-78
2023/01/22 05:08:59;;;;;;;14.60;6.90;;;;;;;-1.72;100.00;103394.94;6191980;23;20100;-78
2023/01/22 05:11:30;;;;;;;10.73;7.28;;;;;;;-1.70;100.00;103387.59;6191731;23;20022;-78
2023/01/22 05:14:00;;;;;;;10.48;6.90;;;;;;;-1.66;100.00;103397.47;6218885;23;20048;-78
2023/01/22 05:16:27;;;;;;;8.57;6.40;;;;;;;-1.65;100.00;103401.63;6190559;23;20017;-77
2023/01/22 05:18:53;;;;;;;11.27;6.47;;;;;;;-1.64;100.00;103398.72;6218222;23;20474;-78
2023/01/22 05:21:20;;;;;;;9.07;6.82;;;;;;;-1.62;100.00;103393.19;6192224;23;20048;-77
2023/01/22 05:23:47;;;;;;;6.53;4.65;;;;;;;-1.62;100.00;103391.38;6192110;23;20028;-77
2023/01/22 05:26:15;;;;;;;10.20;6.35;;;;;;;-1.58;100.00;103391.53;6192098;23;20105;-77
2023/01/22 05:29:05;;;;;;;12.18;6.88;;;;;;;-1.57;100.00;103396.47;6201999;23;20061;-78
2023/01/22 05:31:54;;;;;;;8.70;5.90;;;;;;;-1.53;100.00;103396.66;6219236;23;20021;-78
2023/01/22 05:34:25;;;;;;;8.77;5.45;;;;;;;-1.51;100.00;103395.31;6192026;23;20017;-78
2023/01/22 05:36:52;;;;;;;9.07;6.15;;;;;;;-1.48;100.00;103391.34;6191297;23;20016;-78
2023/01/22 05:39:20;;;;;;;10.68;6.38;;;;;;;-1.47;100.00;103396.25;6192653;23;20021;-78
2023/01/22 05:41:51;;;;;;;11.82;6.50;;;;;;;-1.44;100.00;103400.91;6192724;23;20025;-78
2023/01/22 05:44:18;;;;;;;12.13;6.95;;;;;;;-1.43;100.00;103407.69;6191636;23;20031;-78
2023/01/22 05:46:49;;;;;;;9.45;6.45;;;;;;;-1.41;100.00;103407.41;6193023;23;20048;-78
2023/01/22 05:49:32;;;;;;;11.40;6.95;;;;;;;-1.40;100.00;103408.94;6191945;22;20033;-78
2023/01/22 05:51:58;;;;;;;10.88;7.15;;;;;;;-1.39;100.00;103407.88;6168143;23;20025;-78
2023/01/22 05:54:25;;;;;;;12.68;6.90;;;;;;;-1.38;100.00;103425.09;6193031;23;20025;-78
2023/01/22 05:56:53;;;;;;;10.07;6.38;;;;;;;-1.37;100.00;103413.59;6168256;23;20017;-78
2023/01/22 05:59:22;;;;;;;10.00;6.60;;;;;;;-1.36;100.00;103418.53;6191861;23;20017;-78
2023/01/22 06:01:57;;;;;;;9.07;6.85;;;;;;;-1.35;100.00;103417.47;6169935;23;20489;-78
2023/01/22 06:04:23;;;;;;;14.85;6.95;;;;;;;-1.32;100.00;103418.72;6219645;23;20080;-78
2023/01/22 06:06:50;;;;;;;13.48;6.60;;;;;;;-1.31;100.00;103412.41;6192715;23;20241;-78
2023/01/22 06:09:19;;;;;;;11.10;6.85;;;;;;;-1.31;100.00;103401.97;6192346;23;20021;-78
2023/01/22 06:11:46;;;;;;;10.48;6.35;;;;;;;-1.28;100.00;103408.44;6192647;23;20028;-78
2023/01/22 06:14:13;;;;;;;11.88;6.88;;;;;;;-1.27;100.00;103404.78;6192048;23;20530;-78
2023/01/22 06:16:40;;;;;;;10.60;6.30;;;;;;;-1.27;100.00;103415.22;6192561;23;20017;-78
2023/01/22 06:19:25;;;;;;;9.90;7.13;;;;;;;-1.25;100.00;103410.47;6219513;23;20029;-78
2023/01/22 06:21:53;;;;;;;9.70;6.53;;;;;;;-1.25;100.00;103416.47;6192666;23;20021;-78
2023/01/22 06:24:28;;;;;;;11.82;6.10;;;;;;;-1.23;100.00;103413.56;6193099;23;20108;-78
2023/01/22 06:26:55;;;;;;;10.30;6.68;;;;;;;-1.23;100.00;103406.50;6191928;23;20459;-77
2023/01/22 06:29:28;;;;;;;11.90;6.28;;;;;;;-1.21;100.00;103409.59;6192318;23;20025;-77
2023/01/22 06:31:56;;;;;;;12.55;7.10;;;;;;;-1.20;100.00;103415.59;6192770;23;20028;-77
2023/01/22 06:34:22;;;;;;;9.05;6.57;;;;;;;-1.21;100.00;103417.44;6219619;23;20017;-77
2023/01/22 06:36:50;;;;;;;12.82;6.72;;;;;;;-1.20;100.00;103418.97;6167998;23;20024;-78
2023/01/22 06:39:17;;;;;;;10.23;6.75;;;;;;;-1.19;100.00;103417.91;6192534;23;20021;-77
2023/01/22 06:41:55;;;;;;;8.85;6.65;;;;;;;-1.18;100.00;103418.66;6191355;23;20096;-77
2023/01/22 06:44:22;;;;;;;10.05;6.53;;;;;;;-1.17;100.00;103420.22;6192116;23;20040;-77
2023/01/22 06:46:50;;;;;;;11.50;7.15;;;;;;;-1.16;100.00;103421.75;6192289;23;20366;-77
2023/01/22 06:49:23;;;;;;;8.88;6.50;;;;;;;-1.15;100.00;103425.94;6191636;22;20087;-77
2023/01/22 06:51:50;;;;;;;9.43;6.03;;;;;;;-1.14;100.00;103419.63;6192558;23;20075;-77
2023/01/22 06:54:17;;;;;;;13.25;6.38;;;;;;;-1.13;100.00;103421.19;6192430;23;20020;-77
2023/01/22 06:56:44;;;;;;;10.63;6.03;;;;;;;-1.12;100.00;103422.72;6192151;23;20104;-78
2023/01/22 06:59:12;;;;;;;7.40;5.80;;;;;;;-1.12;100.00;103422.72;6167902;23;20021;-78
2023/01/22 07:01:39;;;;;;;9.38;6.25;;;;;;;-1.12;100.00;103423.50;6219504;23;20092;-77
2023/01/22 07:04:05;;;;;;;9.02;6.40;;;;;;;-1.10;100.00;103421.38;6219506;23;20039;-77
2023/01/22 07:06:32;;;;;;;11.85;6.22;;;;;;;-1.11;100.00;103411.97;6219586;23;20447;-77
2023/01/22 07:08:58;;;;;;;9.63;6.13;;;;;;;-1.10;100.00;103416.13;6192723;23;20021;-77
2023/01/22 07:11:25;;;;;;;7.63;5.85;;;;;;;-1.09;100.00;103407.22;6219756;23;20013;-78
2023/01/22 07:13:51;;;;;;;7.63;6.03;;;;;;;-1.08;100.00;103415.84;6220742;23;20029;-78
2023/01/22 07:16:18;;;;;;;7.88;6.22;;;;;;;-1.07;100.00;103405.09;6194800;23;20013;-77
2023/01/22 07:18:44;;;;;;;11.93;6.75;;;;;;;-1.06;100.00;103403.25;6221363;23;20021;-77
2023/01/22 07:21:11;;;;;;;7.88;6.38;;;;;;;-1.05;100.00;103407.41;6220457;23;20024;-77
2023/01/22 07:23:38;;;;;;;7.82;5.75;;;;;;;-1.04;100.00;103417.59;6219066;23;20017;-78
2023/01/22 07:26:05;;;;;;;10.48;5.93;;;;;;;-1.03;100.00;103420.97;6217667;23;20021;-77
2023/01/22 07:28:32;;;;;;;9.25;5.95;;;;;;;-1.02;100.00;103427.75;6193484;23;20017;-79
2023/01/22 07:30:59;;;;;;;8.32;5.55;;;;;;;-1.02;100.00;103425.13;6219764;23;20355;-78
2023/01/22 07:33:26;;;;;;;10.20;6.80;;;;;;;-1.00;100.00;103423.00;6220377;23;20440;-79
2023/01/22 07:35:55;;;;;;;8.18;6.18;;;;;;;-0.99;100.00;103427.16;6219626;23;20161;-78
2023/01/22 07:38:25;;;;;;;8.13;5.97;;;;;;;-0.97;100.00;103421.63;6168649;23;20033;-77
2023/01/22 07:40:52;;;;;;;6.53;4.85;;;;;;;-0.97;100.00;103425.03;6192569;23;20020;-77
2023/01/22 07:43:19;;;;;;;9.73;6.10;;;;;;;-0.97;100.00;103425.03;6194210;23;20514;-79
2023/01/22 07:45:45;;;;;;;13.20;6.13;;;;;;;-0.94;100.00;103426.28;6193463;23;20056;-80
2023/01/22 07:48:12;;;;;;;8.93;5.07;;;;;;;-0.95;100.00;103425.50;6193560;23;20024;-80
2023/01/22 07:50:39;;;;;;;6.85;5.55;;;;;;;-0.93;100.00;103431.22;6206844;23;20434;-81
2023/01/22 07:53:06;;;;;;;7.95;5.78;;;;;;;-0.92;100.00;103432.75;6220311;22;20517;-80
2023/01/22 07:55:33;;;;;;;6.25;5.47;;;;;;;-0.91;99.91;103430.91;6219974;22;20013;-81
2023/01/22 07:58:02;;;;;;;9.25;6.10;;;;;;;-0.89;99.84;103434.03;6220059;22;20021;-80
2023/01/22 08:00:29;;;;;;;9.27;5.90;;;;;;;-0.88;99.64;103438.19;6189773;23;20017;-80
2023/01/22 08:02:56;;;;;;;8.23;5.97;;;;;;;-0.88;100.00;103438.94;6161597;23;20021;-78
2023/01/22 08:05:22;;;;;;;7.05;5.25;;;;;;;-0.87;99.56;103440.50;6190001;23;20021;-79
2023/01/22 08:07:49;;;;;;;8.05;5.32;;;;;;;-0.86;99.53;103444.66;6188743;23;20025;-78
2023/01/22 08:10:16;;;;;;;6.95;5.43;;;;;;;-0.83;99.51;103435.47;6189600;23;20049;-79
2023/01/22 08:12:43;;;;;;;8.07;5.60;;;;;;;-0.83;99.58;103431.00;6163101;23;20408;-79
2023/01/22 08:15:12;;;;;;;5.68;5.03;;;;;;;-0.82;99.13;103429.16;6188327;23;20020;-78
2023/01/22 08:17:38;;;;;;;7.28;5.82;;;;;;;-0.81;99.17;103438.56;6187677;23;20042;-76
2023/01/22 08:20:06;;;;;;;7.07;5.35;;;;;;;-0.79;99.13;103439.00;6188020;23;20021;-76
2023/01/22 08:22:32;;;;;;;9.00;5.25;;;;;;;-0.80;99.03;103442.72;6190115;23;20013;-78
2023/01/22 08:24:59;;;;;;;11.15;5.60;;;;;;;-0.80;98.91;103445.31;6189194;23;20079;-78
2023/01/22 08:27:25;;;;;;;6.53;5.28;;;;;;;-0.81;98.98;103436.72;6189614;23;20022;-78
2023/01/22 08:29:52;;;;;;;6.15;4.95;;;;;;;-0.83;98.92;103441.47;6188234;23;20041;-77
2023/01/22 08:32:18;;;;;;;6.03;5.13;;;;;;;-0.86;98.88;103443.88;6190093;23;20017;-77
2023/01/22 08:34:45;;;;;;;6.35;5.15;;;;;;;-0.87;98.65;103450.97;6188509;23;20021;-77
2023/01/22 08:37:12;;;;;;;6.80;5.28;;;;;;;-0.86;98.63;103452.50;6189604;23;20028;-78
2023/01/22 08:39:39;;;;;;;6.18;4.50;;;;;;;-0.85;98.60;103446.22;6190397;23;20112;-78
2023/01/22 08:42:05;;;;;;;9.93;5.32;;;;;;;-0.82;98.42;103452.69;6189706;23;20019;-78
2023/01/22 08:44:32;;;;;;;6.68;5.38;;;;;;;-0.79;98.46;103446.84;6188266;23;20060;-79
2023/01/22 08:46:58;;;;;;;6.43;5.35;;;;;;;-0.76;98.36;103447.03;6187944;23;20088;-78
2023/01/22 08:49:25;;;;;;;9.13;5.15;;;;;;;-0.71;98.40;103443.53;6189685;23;20448;-78
2023/01/22 08:51:52;;;;;;;6.68;4.82;;;;;;;-0.68;98.09;103442.94;6189084;23;20018;-78
2023/01/22 08:54:18;;;;;;;7.97;5.20;;;;;;;-0.63;98.08;103447.28;6189776;23;20057;-79
2023/01/22 08:56:46;;;;;;;7.43;5.72;;;;;;;-0.59;98.13;103456.09;6190056;23;20415;-79
2023/01/22 08:59:14;;;;;;;6.47;5.03;;;;;;;-0.55;97.82;103452.59;6162996;23;20044;-79
2023/01/22 09:01:41;;;;;;;7.03;5.25;;;;;;;-0.51;98.00;103452.78;6190042;23;20014;-79
2023/01/22 09:04:09;;;;;;;6.13;5.00;;;;;;;-0.48;97.91;103452.94;6163655;23;20054;-78
2023/01/22 09:06:37;;;;;;;6.47;4.80;;;;;;;-0.46;97.38;103460.50;6189233;23;20021;-79
2023/01/22 09:09:04;;;;;;;6.63;4.28;;;;;;;-0.47;97.63;103451.09;6189759;23;20013;-80
2023/01/22 09:11:31;;;;;;;7.18;5.22;;;;;;;-0.46;97.38;103455.28;6189977;23;20014;-78
2023/01/22 09:13:58;;;;;;;6.32;4.97;;;;;;;-0.45;97.42;103449.75;6190800;23;20444;-78
2023/01/22 09:16:26;;;;;;;6.57;5.10;;;;;;;-0.43;97.27;103454.69;6164086;23;20026;-78
2023/01/22 09:18:52;;;;;;;6.65;5.38;;;;;;;-0.40;97.65;103452.22;6190662;23;20049;-79
2023/01/22 09:21:19;;;;;;;7.35;4.90;;;;;;;-0.39;97.58;103447.75;6189929;23;20049;-79
2023/01/22 09:23:46;;;;;;;6.18;5.00;;;;;;;-0.36;97.45;103449.78;6191125;23;20021;-81
2023/01/22 09:26:12;;;;;;;5.30;4.57;;;;;;;-0.32;97.53;103439.47;6163825;23;20487;-79
2023/01/22 09:28:39;;;;;;;6.18;5.03;;;;;;;-0.30;97.38;103445.19;6189909;23;20017;-79
2023/01/22 09:31:05;;;;;;;7.47;5.50;;;;;;;-0.26;97.49;103446.16;6188721;23;20018;-79
2023/01/22 09:33:32;;;;;;;6.18;5.00;;;;;;;-0.23;97.31;103456.03;6190918;23;20014;-80
2023/01/22 09:36:13;;;;;;;7.18;5.03;;;;;;;-0.18;97.34;103456.69;6161468;23;20414;-80
2023/01/22 09:38:40;;;;;;;6.13;4.75;;;;;;;-0.17;97.30;103466.06;6190742;23;20463;-77
2023/01/22 09:41:19;;;;;;;7.35;4.70;;;;;;;-0.15;97.43;103465.78;6163612;23;20064;-78
2023/01/22 09:44:00;;;;;;;8.23;5.20;;;;;;;-0.12;97.16;103459.94;6190522;23;20049;-78
2023/01/22 09:46:35;;;;;;;7.15;5.10;;;;;;;-0.10;96.89;103466.44;6190475;23;20025;-78
2023/01/22 09:49:07;;;;;;;9.60;5.00;;;;;;;-0.07;96.91;103460.59;6189821;23;20407;-79
2023/01/22 09:51:34;;;;;;;6.78;5.03;;;;;;;0.00;96.90;103463.53;6188355;23;20045;-79
2023/01/22 09:54:06;;;;;;;5.68;4.43;;;;;;;0.06;96.99;103468.66;6190419;23;20045;-78
2023/01/22 09:56:42;;;;;;;5.63;4.75;;;;;;;0.07;96.63;103472.81;6163862;23;20045;-79
2023/01/22 09:59:17;;;;;;;7.93;4.97;;;;;;;0.11;96.11;103473.75;6190039;23;20065;-79
2023/01/22 10:01:50;;;;;;;4.95;4.45;;;;;;;0.11;96.57;103481.63;6190761;23;20759;-79
2023/01/22 10:04:29;;;;;;;7.85;5.05;;;;;;;0.13;96.42;103476.84;6213408;23;20128;-77
2023/01/22 10:06:59;;;;;;;8.80;5.30;;;;;;;0.17;96.39;103483.03;6188565;23;20435;-78
2023/01/22 10:09:29;;;;;;;8.60;5.07;;;;;;;0.18;96.37;103477.50;6188733;23;20096;-75
2023/01/22 10:11:57;;;;;;;7.20;5.20;;;;;;;0.22;95.93;103477.69;6188871;23;20355;-75
2023/01/22 10:14:28;;;;;;;9.35;5.15;;;;;;;0.26;96.00;103481.25;6190148;23;20113;-78
2023/01/22 10:16:59;;;;;;;8.07;5.07;;;;;;;0.27;96.09;103477.53;6190413;23;20025;-78
2023/01/22 10:19:41;;;;;;;6.77;5.37;;;;;;;0.31;95.87;103479.25;6190140;23;20025;-78
2023/01/22 10:22:19;;;;;;;9.60;4.97;;;;;;;0.36;95.61;103477.59;6190182;23;20024;-78
2023/01/22 10:24:45;;;;;;;8.52;4.93;;;;;;;0.35;95.11;103478.66;6187769;23;20017;-77
2023/01/22 10:27:19;;;;;;;6.50;5.63;;;;;;;0.35;94.88;103483.91;6188585;23;20028;-78
2023/01/22 10:30:01;;;;;;;6.50;4.88;;;;;;;0.36;95.16;103474.97;6190347;23;20068;-78
2023/01/22 10:32:29;;;;;;;7.60;5.28;;;;;;;0.36;94.93;103469.72;6188603;23;20020;-78
2023/01/22 10:35:15;;;;;;;6.95;4.60;;;;;;;0.36;94.75;103464.50;6189443;23;20053;-77
2023/01/22 10:37:50;;;;;;;9.00;4.57;;;;;;;0.38;94.83;103464.97;6189035;23;20479;-78
2023/01/22 10:40:37;;;;;;;6.90;5.13;;;;;;;0.40;94.90;103473.28;6190598;23;20040;-78
2023/01/22 10:43:13;;;;;;;5.20;4.53;;;;;;;0.41;94.94;103469.56;6190269;23;20013;-78
2023/01/22 10:45:53;;;;;;;6.40;5.18;;;;;;;0.40;94.90;103463.56;6190275;23;20481;-78
2023/01/22 10:48:21;;;;;;;7.03;4.40;;;;;;;0.43;94.92;103459.56;6189544;23;20021;-79
2023/01/22 10:51:01;;;;;;;7.40;4.85;;;;;;;0.46;95.03;103453.72;6187308;23;20022;-78
2023/01/22 10:53:31;;;;;;;7.30;5.07;;;;;;;0.48;94.66;103462.81;6190605;23;20020;-78
2023/01/22 10:56:00;;;;;;;8.57;5.00;;;;;;;0.50;94.58;103470.38;6188574;23;20113;-79
2023/01/22 10:58:31;;;;;;;5.45;4.60;;;;;;;0.48;94.50;103472.53;6190141;23;20045;-79
2023/01/22 11:01:22;;;;;;;8.60;4.88;;;;;;;0.46;94.58;103472.06;6188643;23;20013;-79
2023/01/22 11:03:48;;;;;;;4.65;4.18;;;;;;;0.45;94.56;103465.25;6188079;23;20415;-78
2023/01/22 11:06:38;;;;;;;6.38;5.07;;;;;;;0.46;94.86;103464.19;6191873;23;20025;-79
2023/01/22 11:09:14;;;;;;;10.73;5.00;;;;;;;0.49;94.68;103474.84;6193474;23;20058;-79
2023/01/22 11:11:47;;;;;;;4.88;4.25;;;;;;;0.46;94.71;103472.06;6193590;23;20017;-79
2023/01/22 11:14:21;;;;;;;6.85;4.53;;;;;;;0.48;94.61;103462.03;6190738;23;20017;-78
2023/01/22 11:16:51;;;;;;;8.02;5.10;;;;;;;0.51;94.61;103466.69;6189863;23;20568;-79
2023/01/22 11:19:21;;;;;;;10.18;4.75;;;;;;;0.52;94.74;103463.75;6190498;23;20022;-79
2023/01/22 11:22:13;;;;;;;5.55;4.85;;;;;;;0.56;94.67;103461.28;6191823;23;20018;-78
2023/01/22 11:24:46;;;;;;;6.93;4.68;;;;;;;0.54;94.33;103456.34;6190487;23;20017;-78
2023/01/22 11:27:30;;;;;;;6.82;5.18;;;;;;;0.54;94.22;103448.50;6189762;23;20056;-80
2023/01/22 11:30:04;;;;;;;8.90;5.13;;;;;;;0.57;94.23;103457.59;6189920;23;20027;-79
2023/01/22 11:32:40;;;;;;;5.47;4.53;;;;;;;0.58;94.28;103457.28;6189656;23;20013;-77
2023/01/22 11:35:37;;;;;;;7.53;5.13;;;;;;;0.62;94.45;103447.75;6188001;23;20125;-79
2023/01/22 11:38:14;;;;;;;5.80;5.07;;;;;;;0.63;94.13;103449.28;6189975;23;20068;-79